createdAt,value
2019-05-20T00:00:25.063Z,0.00
2019-05-20T00:01:25.051Z,0.00
2019-05-20T00:02:28.184Z,0.00
2019-05-20T00:03:25.026Z,0.00
2019-05-20T00:04:25.029Z,0.00
2019-05-20T00:05:25.186Z,0.00
2019-05-20T00:06:24.999Z,0.00
2019-05-20T00:07:24.978Z,0.00
2019-05-20T00:08:24.968Z,0.00
2019-05-20T00:09:24.973Z,0.00
2019-05-20T00:10:24.948Z,0.00
2019-05-20T00:11:24.934Z,0.00
2019-05-20T00:12:24.925Z,0.00
2019-05-20T00:13:24.915Z,0.00
2019-05-20T00:14:24.917Z,0.00
2019-05-20T00:15:24.894Z,0.00
2019-05-20T00:16:24.877Z,0.00
2019-05-20T00:17:24.885Z,0.00
2019-05-20T00:18:24.853Z,0.00
2019-05-20T00:19:24.861Z,0.00
2019-05-20T00:20:24.831Z,0.00
2019-05-20T00:21:24.823Z,0.00
2019-05-20T00:22:24.808Z,0.00
2019-05-20T00:23:24.821Z,0.00
2019-05-20T00:24:24.788Z,0.00
2019-05-20T00:25:24.784Z,0.00
2019-05-20T00:26:24.761Z,0.00
2019-05-20T00:27:24.758Z,0.00
2019-05-20T00:28:24.739Z,0.00
2019-05-20T00:29:24.730Z,0.00
2019-05-20T00:30:24.744Z,0.00
2019-05-20T00:31:24.709Z,0.00
2019-05-20T00:32:40.015Z,0.00
2019-05-20T00:33:25.686Z,0.00
2019-05-20T00:34:34.599Z,0.00
2019-05-20T00:35:25.674Z,0.00
2019-05-20T00:36:24.656Z,0.00
2019-05-20T00:37:24.644Z,0.00
2019-05-20T00:38:24.645Z,0.00
2019-05-20T00:39:24.627Z,0.00
2019-05-20T00:40:24.619Z,0.00
2019-05-20T00:41:24.606Z,0.00
2019-05-20T00:42:24.592Z,0.00
2019-05-20T00:43:24.583Z,0.00
2019-05-20T00:44:24.567Z,0.00
2019-05-20T00:45:24.569Z,0.00
2019-05-20T00:46:24.546Z,0.00
2019-05-20T00:47:24.535Z,0.00
2019-05-20T00:48:24.523Z,0.00
2019-05-20T00:49:24.511Z,0.00
2019-05-20T00:50:24.511Z,0.00
2019-05-20T00:51:24.495Z,0.00
2019-05-20T00:52:24.478Z,0.00
2019-05-20T00:53:24.469Z,0.00
2019-05-20T00:54:24.461Z,0.00
2019-05-20T00:55:24.457Z,0.00
2019-05-20T00:56:24.439Z,0.00
2019-05-20T00:57:24.425Z,0.00
2019-05-20T00:58:24.412Z,0.00
2019-05-20T00:59:24.401Z,0.00
2019-05-20T01:00:24.417Z,0.00
2019-05-20T01:01:24.382Z,0.00
2019-05-20T01:02:24.377Z,0.00
2019-05-20T01:03:24.357Z,0.00
2019-05-20T01:04:24.347Z,0.00
2019-05-20T01:05:24.376Z,0.00
2019-05-20T01:06:24.345Z,0.00
2019-05-20T01:07:24.321Z,0.00
2019-05-20T01:08:24.305Z,0.00
2019-05-20T01:09:24.292Z,0.00
2019-05-20T01:10:24.281Z,0.00
2019-05-20T01:11:24.280Z,0.00
2019-05-20T01:12:24.261Z,0.00
2019-05-20T01:13:24.247Z,0.00
2019-05-20T01:14:24.243Z,0.00
2019-05-20T01:15:24.229Z,0.00
2019-05-20T01:16:24.225Z,0.00
2019-05-20T01:17:24.205Z,0.00
2019-05-20T01:18:24.221Z,0.00
2019-05-20T01:19:24.184Z,0.00
2019-05-20T01:20:24.181Z,0.00
2019-05-20T01:21:24.172Z,0.00
2019-05-20T01:22:24.158Z,0.00
2019-05-20T01:23:24.143Z,0.00
2019-05-20T01:24:24.142Z,0.00
2019-05-20T01:25:24.118Z,0.00
2019-05-20T01:26:24.115Z,0.00
2019-05-20T01:27:24.096Z,0.00
2019-05-20T01:28:24.087Z,0.00
2019-05-20T01:29:24.072Z,0.00
2019-05-20T01:30:24.065Z,0.00
2019-05-20T01:31:24.066Z,0.00
2019-05-20T01:32:24.040Z,0.00
2019-05-20T01:33:24.031Z,0.00
2019-05-20T01:34:24.019Z,0.00
2019-05-20T01:35:24.018Z,0.00
2019-05-20T01:36:24.016Z,0.00
2019-05-20T01:37:23.985Z,0.00
2019-05-20T01:38:23.974Z,0.00
2019-05-20T01:39:23.988Z,0.00
2019-05-20T01:40:23.959Z,0.00
2019-05-20T01:41:23.983Z,0.00
2019-05-20T01:42:23.933Z,0.00
2019-05-20T01:43:28.142Z,0.00
2019-05-20T01:44:23.910Z,0.00
2019-05-20T01:45:23.903Z,0.00
2019-05-20T01:46:23.887Z,0.00
2019-05-20T01:47:23.896Z,0.00
2019-05-20T01:48:23.865Z,0.00
2019-05-20T01:49:23.854Z,0.00
2019-05-20T01:50:23.844Z,0.00
2019-05-20T01:51:23.840Z,0.00
2019-05-20T01:52:23.834Z,0.00
2019-05-20T01:53:23.810Z,0.00
2019-05-20T01:54:23.804Z,0.00
2019-05-20T01:55:23.791Z,0.00
2019-05-20T01:56:23.784Z,0.00
2019-05-20T01:57:23.776Z,0.00
2019-05-20T01:58:23.761Z,0.00
2019-05-20T01:59:23.774Z,0.00
2019-05-20T02:00:23.733Z,0.00
2019-05-20T02:01:23.725Z,0.00
2019-05-20T02:02:23.725Z,0.00
2019-05-20T02:03:31.751Z,0.00
2019-05-20T02:04:24.694Z,0.00
2019-05-20T02:05:23.699Z,0.00
2019-05-20T02:06:23.668Z,0.00
2019-05-20T02:07:23.669Z,0.00
2019-05-20T02:08:23.647Z,0.00
2019-05-20T02:09:23.642Z,0.00
2019-05-20T02:10:23.626Z,0.00
2019-05-20T02:11:23.617Z,0.00
2019-05-20T02:12:23.623Z,0.00
2019-05-20T02:13:23.601Z,0.00
2019-05-20T02:14:23.587Z,0.00
2019-05-20T02:15:23.572Z,0.00
2019-05-20T02:16:23.568Z,0.00
2019-05-20T02:17:23.597Z,0.00
2019-05-20T02:18:23.574Z,0.00
2019-05-20T02:19:23.539Z,0.00
2019-05-20T02:20:23.527Z,0.00
2019-05-20T02:21:23.528Z,0.00
2019-05-20T02:22:23.544Z,0.00
2019-05-20T02:23:23.494Z,0.00
2019-05-20T02:24:23.477Z,0.00
2019-05-20T02:25:23.466Z,0.00
2019-05-20T02:26:23.456Z,0.00
2019-05-20T02:27:23.444Z,0.00
2019-05-20T02:28:23.445Z,0.00
2019-05-20T02:29:23.417Z,0.00
2019-05-20T02:30:23.421Z,0.00
2019-05-20T02:31:23.406Z,0.00
2019-05-20T02:32:23.396Z,0.00
2019-05-20T02:33:23.404Z,0.00
2019-05-20T02:34:23.378Z,0.00
2019-05-20T02:35:23.358Z,0.00
2019-05-20T02:36:23.350Z,0.00
2019-05-20T02:37:23.333Z,0.00
2019-05-20T02:38:23.337Z,4.00
2019-05-20T02:39:26.532Z,4.00
2019-05-20T02:40:23.321Z,0.00
2019-05-20T02:41:23.297Z,0.00
2019-05-20T02:42:23.298Z,4.00
2019-05-20T02:43:23.278Z,0.00
2019-05-20T02:44:23.259Z,4.00
2019-05-20T02:45:23.253Z,4.00
2019-05-20T02:46:23.234Z,4.00
2019-05-20T02:47:23.229Z,4.00
2019-05-20T02:48:23.229Z,8.00
2019-05-20T02:49:23.203Z,8.00
2019-05-20T02:50:23.203Z,8.00
2019-05-20T02:51:23.188Z,8.00
2019-05-20T02:52:23.169Z,8.00
2019-05-20T02:53:23.173Z,12.00
2019-05-20T02:54:23.153Z,8.00
2019-05-20T02:55:23.142Z,12.00
2019-05-20T02:56:23.130Z,12.00
2019-05-20T02:57:23.125Z,12.00
2019-05-20T02:58:23.149Z,16.00
2019-05-20T02:59:23.093Z,16.00
2019-05-20T03:00:23.092Z,16.00
2019-05-20T03:01:23.085Z,20.00
2019-05-20T03:02:23.069Z,20.00
2019-05-20T03:03:23.063Z,20.00
2019-05-20T03:04:23.060Z,20.00
2019-05-20T03:05:23.027Z,24.00
2019-05-20T03:06:23.020Z,24.00
2019-05-20T03:07:23.013Z,24.00
2019-05-20T03:08:22.997Z,28.00
2019-05-20T03:09:23.004Z,28.00
2019-05-20T03:10:22.971Z,32.00
2019-05-20T03:11:22.971Z,36.00
2019-05-20T03:12:22.952Z,36.00
2019-05-20T03:13:22.952Z,40.00
2019-05-20T03:14:22.941Z,44.00
2019-05-20T03:15:22.922Z,44.00
2019-05-20T03:16:22.916Z,48.00
2019-05-20T03:17:22.921Z,52.00
2019-05-20T03:18:22.893Z,52.00
2019-05-20T03:19:22.903Z,60.00
2019-05-20T03:20:22.874Z,60.00
2019-05-20T03:21:22.889Z,68.00
2019-05-20T03:22:22.843Z,72.00
2019-05-20T03:23:22.832Z,76.00
2019-05-20T03:24:22.830Z,84.00
2019-05-20T03:25:22.811Z,88.00
2019-05-20T03:26:22.813Z,92.00
2019-05-20T03:27:22.795Z,96.00
2019-05-20T03:28:22.782Z,100.00
2019-05-20T03:29:22.794Z,104.00
2019-05-20T03:30:22.755Z,108.00
2019-05-20T03:31:22.745Z,116.00
2019-05-20T03:32:22.741Z,124.00
2019-05-20T03:33:22.725Z,128.00
2019-05-20T03:34:43.798Z,132.00
2019-05-20T03:35:23.737Z,140.00
2019-05-20T03:36:22.687Z,148.00
2019-05-20T03:37:22.683Z,152.00
2019-05-20T03:38:22.667Z,156.00
2019-05-20T03:39:22.671Z,160.00
2019-05-20T03:40:22.658Z,172.00
2019-05-20T03:41:22.632Z,180.00
2019-05-20T03:42:22.624Z,188.00
2019-05-20T03:43:22.622Z,192.00
2019-05-20T03:44:22.641Z,200.00
2019-05-20T03:45:22.592Z,208.00
2019-05-20T03:46:22.578Z,216.00
2019-05-20T03:47:22.569Z,220.00
2019-05-20T03:48:22.570Z,228.00
2019-05-20T03:49:22.555Z,240.00
2019-05-20T03:50:22.591Z,244.00
2019-05-20T03:51:22.526Z,252.00
2019-05-20T03:52:22.518Z,256.00
2019-05-20T03:53:22.503Z,256.00
2019-05-20T03:54:22.497Z,264.00
2019-05-20T03:55:22.501Z,268.00
2019-05-20T03:56:22.471Z,276.00
2019-05-20T03:57:22.460Z,276.00
2019-05-20T03:58:22.450Z,284.00
2019-05-20T03:59:22.499Z,284.00
2019-05-20T04:00:22.437Z,288.00
2019-05-20T04:01:22.418Z,292.00
2019-05-20T04:02:22.432Z,304.00
2019-05-20T04:03:22.397Z,316.00
2019-05-20T04:04:24.947Z,320.00
2019-05-20T04:05:22.386Z,320.00
2019-05-20T04:06:22.369Z,332.00
2019-05-20T04:07:22.346Z,336.00
2019-05-20T04:08:22.336Z,344.00
2019-05-20T04:09:22.325Z,344.00
2019-05-20T04:10:22.323Z,344.00
2019-05-20T04:11:22.306Z,356.00
2019-05-20T04:12:22.301Z,376.00
2019-05-20T04:13:22.285Z,380.00
2019-05-20T04:14:22.268Z,388.00
2019-05-20T04:15:22.271Z,388.00
2019-05-20T04:16:22.249Z,392.00
2019-05-20T04:17:22.245Z,400.00
2019-05-20T04:18:22.289Z,400.00
2019-05-20T04:19:22.220Z,408.00
2019-05-20T04:20:22.220Z,416.00
2019-05-20T04:21:22.193Z,412.00
2019-05-20T04:22:22.180Z,412.00
2019-05-20T04:23:22.180Z,416.00
2019-05-20T04:24:22.162Z,424.00
2019-05-20T04:25:22.179Z,444.00
2019-05-20T04:26:22.139Z,468.00
2019-05-20T04:27:22.132Z,480.00
2019-05-20T04:28:22.117Z,492.00
2019-05-20T04:29:22.120Z,500.00
2019-05-20T04:30:22.115Z,516.00
2019-05-20T04:31:22.083Z,528.00
2019-05-20T04:32:22.069Z,540.00
2019-05-20T04:33:22.069Z,548.00
2019-05-20T04:34:22.054Z,560.00
2019-05-20T04:35:23.389Z,568.00
2019-05-20T04:36:22.032Z,588.00
2019-05-20T04:37:22.060Z,596.00
2019-05-20T04:38:22.005Z,600.00
2019-05-20T04:39:22.029Z,600.00
2019-05-20T04:40:22.001Z,608.00
2019-05-20T04:41:21.978Z,612.00
2019-05-20T04:42:21.968Z,588.00
2019-05-20T04:43:21.950Z,576.00
2019-05-20T04:44:21.939Z,580.00
2019-05-20T04:45:21.940Z,584.00
2019-05-20T04:46:21.920Z,580.00
2019-05-20T04:47:21.909Z,552.00
2019-05-20T04:48:21.907Z,588.00
2019-05-20T04:49:21.901Z,584.00
2019-05-20T04:50:21.902Z,580.00
2019-05-20T04:51:21.862Z,556.00
2019-05-20T04:52:21.862Z,580.00
2019-05-20T04:53:21.840Z,616.00
2019-05-20T04:54:21.829Z,620.00
2019-05-20T04:55:21.830Z,684.00
2019-05-20T04:56:21.818Z,692.00
2019-05-20T04:57:21.799Z,680.00
2019-05-20T04:58:21.799Z,624.00
2019-05-20T04:59:21.778Z,624.00
2019-05-20T05:00:21.763Z,640.00
2019-05-20T05:01:21.762Z,604.00
2019-05-20T05:02:21.758Z,612.00
2019-05-20T05:03:21.733Z,584.00
2019-05-20T05:04:21.722Z,616.00
2019-05-20T05:05:36.803Z,632.00
2019-05-20T05:06:22.718Z,664.00
2019-05-20T05:07:21.684Z,688.00
2019-05-20T05:08:21.675Z,720.00
2019-05-20T05:09:21.675Z,736.00
2019-05-20T05:10:21.652Z,744.00
2019-05-20T05:11:21.657Z,748.00
2019-05-20T05:12:21.635Z,728.00
2019-05-20T05:13:21.629Z,740.00
2019-05-20T05:14:21.611Z,756.00
2019-05-20T05:15:21.606Z,760.00
2019-05-20T05:16:21.600Z,768.00
2019-05-20T05:17:21.582Z,760.00
2019-05-20T05:18:21.571Z,780.00
2019-05-20T05:19:21.562Z,808.00
2019-05-20T05:20:21.581Z,892.00
2019-05-20T05:21:21.553Z,980.00
2019-05-20T05:22:21.524Z,1084.00
2019-05-20T05:23:21.509Z,1184.00
2019-05-20T05:24:21.499Z,1308.00
2019-05-20T05:25:21.533Z,1360.00
2019-05-20T05:26:21.496Z,1356.00
2019-05-20T05:27:21.469Z,1336.00
2019-05-20T05:28:21.455Z,1304.00
2019-05-20T05:29:21.445Z,1224.00
2019-05-20T05:30:21.434Z,1228.00
2019-05-20T05:31:21.433Z,1228.00
2019-05-20T05:32:21.418Z,1216.00
2019-05-20T05:33:21.431Z,1240.00
2019-05-20T05:34:21.389Z,1252.00
2019-05-20T05:35:21.376Z,1276.00
2019-05-20T05:36:21.390Z,1300.00
2019-05-20T05:37:21.358Z,1308.00
2019-05-20T05:38:21.357Z,1328.00
2019-05-20T05:39:21.333Z,1296.00
2019-05-20T05:40:21.324Z,1280.00
2019-05-20T05:41:21.349Z,1280.00
2019-05-20T05:42:21.302Z,1480.00
2019-05-20T05:43:21.295Z,1560.00
2019-05-20T05:44:21.286Z,1832.00
2019-05-20T05:45:21.275Z,2100.00
2019-05-20T05:46:21.259Z,1720.00
2019-05-20T05:47:21.258Z,1532.00
2019-05-20T05:48:21.241Z,1572.00
2019-05-20T05:49:21.220Z,1336.00
2019-05-20T05:50:21.224Z,1304.00
2019-05-20T05:51:21.207Z,1764.00
2019-05-20T05:52:23.021Z,2636.00
2019-05-20T05:53:21.182Z,2800.00
2019-05-20T05:54:21.206Z,4640.00
2019-05-20T05:55:21.166Z,6708.00
2019-05-20T05:56:21.150Z,8876.00
2019-05-20T05:57:21.148Z,13132.00
2019-05-20T05:58:21.131Z,16256.00
2019-05-20T05:59:21.115Z,17952.00
2019-05-20T06:00:21.106Z,12620.00
2019-05-20T06:01:21.106Z,6208.00
2019-05-20T06:02:21.134Z,3708.00
2019-05-20T06:03:21.075Z,4648.00
2019-05-20T06:04:21.058Z,9620.00
2019-05-20T06:05:21.071Z,8836.00
2019-05-20T06:06:21.055Z,7760.00
2019-05-20T06:07:21.043Z,4928.00
2019-05-20T06:08:21.027Z,2972.00
2019-05-20T06:09:21.005Z,3036.00
2019-05-20T06:10:20.997Z,2596.00
2019-05-20T06:11:20.985Z,2616.00
2019-05-20T06:12:20.988Z,2556.00
2019-05-20T06:13:20.969Z,2764.00
2019-05-20T06:14:20.961Z,3176.00
2019-05-20T06:15:20.942Z,2692.00
2019-05-20T06:16:35.341Z,2436.00
2019-05-20T06:17:21.929Z,2712.00
2019-05-20T06:18:20.909Z,3152.00
2019-05-20T06:19:20.905Z,2944.00
2019-05-20T06:20:20.887Z,2900.00
2019-05-20T06:21:20.879Z,4300.00
2019-05-20T06:22:20.929Z,6044.00
2019-05-20T06:23:20.852Z,7552.00
2019-05-20T06:24:20.850Z,12652.00
2019-05-20T06:25:20.837Z,13364.00
2019-05-20T06:26:20.829Z,21376.00
2019-05-20T06:27:20.829Z,29824.00
2019-05-20T06:28:20.804Z,32032.00
2019-05-20T06:29:20.789Z,24832.00
2019-05-20T06:30:20.789Z,10336.00
2019-05-20T06:31:20.778Z,6496.00
2019-05-20T06:32:20.791Z,15008.00
2019-05-20T06:33:20.749Z,22880.00
2019-05-20T06:34:20.737Z,14816.00
2019-05-20T06:35:20.724Z,5480.00
2019-05-20T06:36:26.834Z,6128.00
2019-05-20T06:37:21.711Z,9668.00
2019-05-20T06:38:20.689Z,14008.00
2019-05-20T06:39:20.679Z,9120.00
2019-05-20T06:40:20.668Z,2260.00
2019-05-20T06:41:20.660Z,1996.00
2019-05-20T06:42:20.700Z,2180.00
2019-05-20T06:43:20.637Z,2172.00
2019-05-20T06:44:20.630Z,2084.00
2019-05-20T06:45:20.614Z,1672.00
2019-05-20T06:46:20.629Z,1428.00
2019-05-20T06:47:20.620Z,1752.00
2019-05-20T06:48:20.587Z,2120.00
2019-05-20T06:49:20.567Z,2160.00
2019-05-20T06:50:20.562Z,2268.00
2019-05-20T06:51:20.543Z,2256.00
2019-05-20T06:52:34.859Z,2236.00
2019-05-20T06:53:21.524Z,2160.00
2019-05-20T06:54:20.559Z,2224.00
2019-05-20T06:55:20.509Z,2188.00
2019-05-20T06:56:20.493Z,2300.00
2019-05-20T06:57:20.493Z,2372.00
2019-05-20T06:58:20.471Z,2408.00
2019-05-20T06:59:20.470Z,2420.00
2019-05-20T07:00:20.449Z,2464.00
2019-05-20T07:01:20.437Z,2384.00
2019-05-20T07:02:20.433Z,2376.00
2019-05-20T07:03:20.429Z,2360.00
2019-05-20T07:04:20.413Z,2452.00
2019-05-20T07:05:20.404Z,2160.00
2019-05-20T07:06:20.385Z,1944.00
2019-05-20T07:07:21.510Z,2304.00
2019-05-20T07:08:20.460Z,2396.00
2019-05-20T07:09:20.352Z,2384.00
2019-05-20T07:10:20.345Z,2364.00
2019-05-20T07:11:20.329Z,2276.00
2019-05-20T07:12:20.319Z,2184.00
2019-05-20T07:13:20.317Z,2188.00
2019-05-20T07:14:20.298Z,2184.00
2019-05-20T07:15:20.282Z,2208.00
2019-05-20T07:16:20.277Z,2200.00
2019-05-20T07:17:20.334Z,2244.00
2019-05-20T07:18:20.263Z,2296.00
2019-05-20T07:19:20.253Z,2344.00
2019-05-20T07:20:20.236Z,2356.00
2019-05-20T07:21:20.223Z,2372.00
2019-05-20T07:22:20.219Z,2408.00
2019-05-20T07:23:20.257Z,2376.00
2019-05-20T07:24:20.191Z,2424.00
2019-05-20T07:25:20.196Z,2448.00
2019-05-20T07:26:20.168Z,2472.00
2019-05-20T07:27:20.157Z,2544.00
2019-05-20T07:28:20.161Z,2576.00
2019-05-20T07:29:20.181Z,2532.00
2019-05-20T07:30:20.129Z,2448.00
2019-05-20T07:31:20.118Z,2340.00
2019-05-20T07:32:20.102Z,2148.00
2019-05-20T07:33:20.107Z,2500.00
2019-05-20T07:34:20.082Z,2556.00
2019-05-20T07:35:30.310Z,2556.00
2019-05-20T07:36:21.054Z,2576.00
2019-05-20T07:37:20.051Z,2460.00
2019-05-20T07:38:20.054Z,2520.00
2019-05-20T07:39:20.034Z,2300.00
2019-05-20T07:40:20.025Z,2504.00
2019-05-20T07:41:20.028Z,2508.00
2019-05-20T07:42:19.994Z,2436.00
2019-05-20T07:43:19.997Z,2340.00
2019-05-20T07:44:19.970Z,2272.00
2019-05-20T07:45:19.980Z,2188.00
2019-05-20T07:46:19.969Z,1888.00
2019-05-20T07:47:19.943Z,2072.00
2019-05-20T07:48:19.960Z,2168.00
2019-05-20T07:49:19.919Z,2168.00
2019-05-20T07:50:19.908Z,2164.00
2019-05-20T07:51:19.897Z,2024.00
2019-05-20T07:52:19.884Z,1980.00
2019-05-20T07:53:19.885Z,2328.00
2019-05-20T07:54:19.866Z,2776.00
2019-05-20T07:55:19.929Z,2552.00
2019-05-20T07:56:19.842Z,2560.00
2019-05-20T07:57:19.839Z,2684.00
2019-05-20T07:58:19.843Z,3160.00
2019-05-20T07:59:19.822Z,3140.00
2019-05-20T08:00:19.797Z,3256.00
2019-05-20T08:01:19.803Z,3744.00
2019-05-20T08:02:19.772Z,4332.00
2019-05-20T08:03:19.872Z,4828.00
2019-05-20T08:04:19.764Z,5160.00
2019-05-20T08:05:19.744Z,5464.00
2019-05-20T08:06:19.732Z,6084.00
2019-05-20T08:07:29.754Z,6648.00
2019-05-20T08:08:20.819Z,8144.00
2019-05-20T08:09:19.698Z,25632.00
2019-05-20T08:10:19.694Z,47968.00
2019-05-20T08:11:19.677Z,54080.00
2019-05-20T08:12:19.672Z,60384.00
2019-05-20T08:13:19.686Z,53728.00
2019-05-20T08:14:19.662Z,50688.00
2019-05-20T08:15:19.682Z,28640.00
2019-05-20T08:16:19.632Z,25760.00
2019-05-20T08:17:19.618Z,57376.00
2019-05-20T08:18:20.382Z,64000.00
2019-05-20T08:19:19.606Z,62592.00
2019-05-20T08:20:19.584Z,62240.00
2019-05-20T08:21:19.572Z,64832.00
2019-05-20T08:22:19.564Z,65536.00
2019-05-20T08:23:19.555Z,62208.00
2019-05-20T08:24:19.555Z,60384.00
2019-05-20T08:25:19.523Z,60480.00
2019-05-20T08:26:19.518Z,55232.00
2019-05-20T08:27:19.505Z,59040.00
2019-05-20T08:28:19.567Z,56288.00
2019-05-20T08:29:19.504Z,58752.00
2019-05-20T08:30:19.476Z,63072.00
2019-05-20T08:31:19.470Z,62720.00
2019-05-20T08:32:19.455Z,63296.00
2019-05-20T08:33:19.446Z,65408.00
2019-05-20T08:34:19.475Z,45568.00
2019-05-20T08:35:19.448Z,24640.00
2019-05-20T08:36:19.445Z,25312.00
2019-05-20T08:37:19.424Z,44352.00
2019-05-20T08:38:19.421Z,66528.00
2019-05-20T08:39:19.394Z,69472.00
2019-05-20T08:40:19.371Z,69312.00
2019-05-20T08:41:19.366Z,66816.00
2019-05-20T08:42:19.375Z,67680.00
2019-05-20T08:43:19.348Z,69728.00
2019-05-20T08:44:19.347Z,67296.00
2019-05-20T08:45:19.351Z,65344.00
2019-05-20T08:46:19.325Z,72800.00
2019-05-20T08:47:19.302Z,79136.00
2019-05-20T08:48:19.290Z,78464.00
2019-05-20T08:49:19.291Z,74304.00
2019-05-20T08:50:19.270Z,76608.00
2019-05-20T08:51:19.337Z,75296.00
2019-05-20T08:52:19.253Z,71616.00
2019-05-20T08:53:19.265Z,68288.00
2019-05-20T08:54:19.251Z,60640.00
2019-05-20T08:55:19.223Z,56960.00
2019-05-20T08:56:19.218Z,45248.00
2019-05-20T08:57:19.210Z,18784.00
2019-05-20T08:58:19.258Z,6700.00
2019-05-20T08:59:19.191Z,17184.00
2019-05-20T09:00:23.771Z,44352.00
2019-05-20T09:01:20.163Z,63264.00
2019-05-20T09:02:19.178Z,55680.00
2019-05-20T09:03:19.142Z,57760.00
2019-05-20T09:04:19.176Z,43712.00
2019-05-20T09:05:19.139Z,43168.00
2019-05-20T09:06:20.762Z,49344.00
2019-05-20T09:07:19.110Z,66400.00
2019-05-20T09:08:19.093Z,59168.00
2019-05-20T09:09:19.165Z,70080.00
2019-05-20T09:10:19.073Z,70016.00
2019-05-20T09:11:19.065Z,64384.00
2019-05-20T09:12:19.093Z,72832.00
2019-05-20T09:13:19.046Z,66912.00
2019-05-20T09:14:19.048Z,65152.00
2019-05-20T09:15:19.025Z,63936.00
2019-05-20T09:16:19.017Z,60896.00
2019-05-20T09:17:19.014Z,64128.00
2019-05-20T09:18:19.040Z,65440.00
2019-05-20T09:19:19.018Z,47776.00
2019-05-20T09:20:18.993Z,71168.00
2019-05-20T09:21:18.965Z,54272.00
2019-05-20T09:22:18.957Z,24448.00
2019-05-20T09:23:18.947Z,21856.00
2019-05-20T09:24:19.220Z,43456.00
2019-05-20T09:25:18.935Z,11876.00
2019-05-20T09:26:18.922Z,16032.00
2019-05-20T09:27:18.926Z,28768.00
2019-05-20T09:28:18.903Z,3184.00
2019-05-20T09:29:18.884Z,48224.00
2019-05-20T09:30:18.894Z,70752.00
2019-05-20T09:31:18.895Z,12448.00
2019-05-20T09:32:18.864Z,71712.00
2019-05-20T09:33:18.841Z,73824.00
2019-05-20T09:34:18.832Z,23488.00
2019-05-20T09:35:18.832Z,56608.00
2019-05-20T09:36:18.814Z,66720.00
2019-05-20T09:37:18.815Z,67872.00
2019-05-20T09:38:21.155Z,67424.00
2019-05-20T09:39:18.782Z,48960.00
2019-05-20T09:40:18.787Z,66016.00
2019-05-20T09:41:18.770Z,64352.00
2019-05-20T09:42:18.757Z,56800.00
2019-05-20T09:43:18.745Z,58080.00
2019-05-20T09:44:18.736Z,8804.00
2019-05-20T09:45:18.736Z,59552.00
2019-05-20T09:46:18.719Z,60448.00
2019-05-20T09:47:18.729Z,62688.00
2019-05-20T09:48:18.699Z,65184.00
2019-05-20T09:49:18.690Z,63456.00
2019-05-20T09:50:18.694Z,64320.00
2019-05-20T09:51:19.048Z,65504.00
2019-05-20T09:52:18.663Z,61280.00
2019-05-20T09:53:18.655Z,62240.00
2019-05-20T09:54:18.647Z,59680.00
2019-05-20T09:55:18.644Z,60480.00
2019-05-20T09:56:18.623Z,58912.00
2019-05-20T09:57:18.626Z,64096.00
2019-05-20T09:58:18.619Z,59168.00
2019-05-20T09:59:18.594Z,58784.00
2019-05-20T10:00:18.597Z,61504.00
2019-05-20T10:01:18.599Z,58112.00
2019-05-20T10:02:18.562Z,58208.00
2019-05-20T10:03:18.553Z,63520.00
2019-05-20T10:04:18.581Z,64928.00
2019-05-20T10:05:18.549Z,67072.00
2019-05-20T10:06:18.563Z,67936.00
2019-05-20T10:07:18.519Z,52672.00
2019-05-20T10:08:34.475Z,7176.00
2019-05-20T10:09:19.517Z,72000.00
2019-05-20T10:10:18.528Z,57824.00
2019-05-20T10:11:18.484Z,54880.00
2019-05-20T10:12:18.470Z,57216.00
2019-05-20T10:13:18.478Z,43200.00
2019-05-20T10:14:18.453Z,52640.00
2019-05-20T10:15:18.458Z,51936.00
2019-05-20T10:16:18.437Z,57504.00
2019-05-20T10:17:18.428Z,59712.00
2019-05-20T10:18:35.563Z,45952.00
2019-05-20T10:19:19.397Z,38336.00
2019-05-20T10:20:18.400Z,19936.00
2019-05-20T10:21:18.382Z,23136.00
2019-05-20T10:22:18.373Z,63712.00
2019-05-20T10:23:18.364Z,62496.00
2019-05-20T10:24:18.421Z,42560.00
2019-05-20T10:25:18.378Z,30368.00
2019-05-20T10:26:18.369Z,41504.00
2019-05-20T10:27:18.330Z,29920.00
2019-05-20T10:28:18.346Z,29024.00
2019-05-20T10:29:18.310Z,12840.00
2019-05-20T10:30:18.311Z,8560.00
2019-05-20T10:31:18.287Z,8128.00
2019-05-20T10:32:18.274Z,10708.00
2019-05-20T10:33:18.270Z,10032.00
2019-05-20T10:34:18.252Z,8336.00
2019-05-20T10:35:18.255Z,6148.00
2019-05-20T10:36:18.262Z,5192.00
2019-05-20T10:37:18.230Z,8508.00
2019-05-20T10:38:18.225Z,55232.00
2019-05-20T10:39:18.202Z,60608.00
2019-05-20T10:40:18.230Z,8632.00
2019-05-20T10:41:18.185Z,2924.00
2019-05-20T10:42:18.175Z,2404.00
2019-05-20T10:43:18.164Z,2960.00
2019-05-20T10:44:18.155Z,3828.00
2019-05-20T10:45:18.206Z,4576.00
2019-05-20T10:46:18.162Z,5976.00
2019-05-20T10:47:18.123Z,12520.00
2019-05-20T10:48:18.112Z,8008.00
2019-05-20T10:49:18.119Z,10200.00
2019-05-20T10:50:18.096Z,5292.00
2019-05-20T10:51:18.100Z,7252.00
2019-05-20T10:52:18.073Z,10508.00
2019-05-20T10:53:18.065Z,10764.00
2019-05-20T10:54:18.052Z,10288.00
2019-05-20T10:55:18.039Z,11952.00
2019-05-20T10:56:18.040Z,10372.00
2019-05-20T10:57:18.022Z,10964.00
2019-05-20T10:58:18.017Z,12704.00
2019-05-20T10:59:18.004Z,9572.00
2019-05-20T11:00:18.008Z,10152.00
2019-05-20T11:01:18.004Z,6764.00
2019-05-20T11:02:17.971Z,6652.00
2019-05-20T11:03:17.959Z,7352.00
2019-05-20T11:04:17.951Z,7384.00
2019-05-20T11:05:17.943Z,5832.00
2019-05-20T11:06:17.944Z,3720.00
2019-05-20T11:07:17.915Z,4752.00
2019-05-20T11:08:17.912Z,3612.00
2019-05-20T11:09:17.895Z,3352.00
2019-05-20T11:10:17.904Z,3464.00
2019-05-20T11:11:17.888Z,2436.00
2019-05-20T11:12:17.867Z,2144.00
2019-05-20T11:13:17.853Z,1876.00
2019-05-20T11:14:17.845Z,1596.00
2019-05-20T11:15:17.838Z,1388.00
2019-05-20T11:16:17.840Z,1344.00
2019-05-20T11:17:17.827Z,1272.00
2019-05-20T11:18:17.803Z,1224.00
2019-05-20T11:19:17.791Z,1220.00
2019-05-20T11:20:17.780Z,1280.00
2019-05-20T11:21:17.787Z,1372.00
2019-05-20T11:22:17.763Z,1420.00
2019-05-20T11:23:17.754Z,1448.00
2019-05-20T11:24:17.738Z,1532.00
2019-05-20T11:25:17.747Z,1656.00
2019-05-20T11:26:17.732Z,1736.00
2019-05-20T11:27:17.723Z,1756.00
2019-05-20T11:28:17.703Z,1788.00
2019-05-20T11:29:17.689Z,1748.00
2019-05-20T11:30:17.680Z,1784.00
2019-05-20T11:31:17.675Z,1804.00
2019-05-20T11:32:17.660Z,1780.00
2019-05-20T11:33:17.648Z,1724.00
2019-05-20T11:34:17.634Z,1552.00
2019-05-20T11:35:17.625Z,1404.00
2019-05-20T11:36:17.631Z,1376.00
2019-05-20T11:37:17.604Z,1412.00
2019-05-20T11:38:17.591Z,1452.00
2019-05-20T11:39:31.241Z,1524.00
2019-05-20T11:40:18.583Z,1564.00
2019-05-20T11:41:17.569Z,1636.00
2019-05-20T11:42:17.552Z,1696.00
2019-05-20T11:43:17.552Z,1748.00
2019-05-20T11:44:17.534Z,1864.00
2019-05-20T11:45:17.519Z,2124.00
2019-05-20T11:46:17.518Z,2372.00
2019-05-20T11:47:17.497Z,2528.00
2019-05-20T11:48:17.487Z,2628.00
2019-05-20T11:49:17.472Z,2772.00
2019-05-20T11:50:17.484Z,2768.00
2019-05-20T11:51:17.461Z,2684.00
2019-05-20T11:52:17.436Z,2632.00
2019-05-20T11:53:17.425Z,2716.00
2019-05-20T11:54:17.415Z,2640.00
2019-05-20T11:55:17.408Z,2568.00
2019-05-20T11:56:17.404Z,2452.00
2019-05-20T11:57:17.382Z,2224.00
2019-05-20T11:58:17.399Z,2088.00
2019-05-20T11:59:17.374Z,2124.00
2019-05-20T12:00:17.354Z,2256.00
2019-05-20T12:01:17.363Z,2248.00
2019-05-20T12:02:17.329Z,2412.00
2019-05-20T12:03:17.324Z,2640.00
2019-05-20T12:04:17.305Z,2784.00
2019-05-20T12:05:17.490Z,2584.00
2019-05-20T12:06:17.286Z,2088.00
2019-05-20T12:07:17.285Z,1840.00
2019-05-20T12:08:17.263Z,1628.00
2019-05-20T12:09:17.256Z,1516.00
2019-05-20T12:10:17.309Z,1436.00
2019-05-20T12:11:17.263Z,1448.00
2019-05-20T12:12:17.232Z,1548.00
2019-05-20T12:13:17.213Z,1672.00
2019-05-20T12:14:17.199Z,1848.00
2019-05-20T12:15:17.197Z,1996.00
2019-05-20T12:16:17.179Z,2204.00
2019-05-20T12:17:17.180Z,2432.00
2019-05-20T12:18:17.168Z,2572.00
2019-05-20T12:19:17.145Z,2504.00
2019-05-20T12:20:17.133Z,2348.00
2019-05-20T12:21:17.122Z,2264.00
2019-05-20T12:22:17.138Z,2244.00